Time;durP1;ratioP1;P1;durP2;ratioP2;P2;SDS_P1;SDS_P2;PMS_P1;PMS_P2;Temp;Humidity;BMP_temperature;BMP_pressure;BME280_temperature;BME280_humidity;BME280_pressure;Samples;Min_cycle;Max_cycle;Signal;HPM_P1;HPM_P2
2020/12/25 00:02:22;;;;;;;10.70;6.47;;;;;;;4.11;80.84;97833.40;2175637;82;21448;-77
2020/12/25 00:05:24;;;;;;;10.23;6.97;;;;;;;4.05;81.17;97837.56;2175510;82;21126;-78
2020/12/25 00:08:24;;;;;;;8.93;6.57;;;;;;;4.00;81.41;97836.59;2175430;82;21135;-78
2020/12/25 00:11:28;;;;;;;7.70;5.03;;;;;;;3.98;80.92;97840.44;2175328;82;21114;-76
2020/12/25 00:14:29;;;;;;;7.87;4.37;;;;;;;3.98;81.53;97843.44;2175386;82;21086;-76
2020/12/25 00:17:30;;;;;;;4.20;3.77;;;;;;;3.94;81.55;97838.63;2175419;82;21247;-77
2020/12/25 00:20:31;;;;;;;7.07;3.60;;;;;;;3.92;81.59;97852.34;2176004;82;21126;-77
2020/12/25 00:23:32;;;;;;;3.97;3.50;;;;;;;3.88;81.85;97859.14;2175629;82;21392;-77
2020/12/25 00:26:37;;;;;;;4.73;4.30;;;;;;;3.84;81.88;97859.50;2175526;82;21086;-77
2020/12/25 00:29:38;;;;;;;7.07;6.13;;;;;;;3.79;82.43;97873.14;2175872;82;21392;-77
2020/12/25 00:32:42;;;;;;;7.70;6.90;;;;;;;3.70;82.41;97880.25;2175910;81;21293;-78
2020/12/25 00:35:43;;;;;;;7.62;6.92;;;;;;;3.63;82.61;97886.52;2176011;82;21094;-79
2020/12/25 00:38:46;;;;;;;8.77;7.87;;;;;;;3.55;82.95;97894.50;2175650;82;21190;-77
2020/12/25 00:41:48;;;;;;;12.33;8.37;;;;;;;3.49;82.99;97902.55;2175504;82;21109;-76
2020/12/25 00:44:51;;;;;;;10.10;9.00;;;;;;;3.47;83.09;97906.80;2175517;82;21130;-78
2020/12/25 00:47:52;;;;;;;12.37;9.10;;;;;;;3.47;83.15;97921.41;2175453;82;21233;-77
2020/12/25 00:50:54;;;;;;;10.47;8.17;;;;;;;3.44;83.26;97923.88;2175143;82;21197;-77
2020/12/25 00:53:55;;;;;;;10.43;7.80;;;;;;;3.41;83.13;97932.41;2175717;82;21133;-77
2020/12/25 00:56:58;;;;;;;9.37;6.80;;;;;;;3.37;83.22;97947.77;2175723;82;21174;-78
2020/12/25 00:59:59;;;;;;;15.87;9.87;;;;;;;3.31;83.08;97947.62;2175573;82;21418;-77
2020/12/25 01:03:01;;;;;;;14.80;10.50;;;;;;;3.26;82.47;97953.95;2175768;82;21075;-77
2020/12/25 01:06:02;;;;;;;12.47;7.87;;;;;;;3.20;82.90;97945.63;2175723;82;21391;-77
2020/12/25 01:09:03;;;;;;;7.90;6.93;;;;;;;3.18;82.79;97943.43;2174862;82;21105;-77
2020/12/25 01:12:04;;;;;;;8.70;7.60;;;;;;;3.16;83.11;97950.67;2174498;82;21252;-77
2020/12/25 01:15:05;;;;;;;10.73;7.00;;;;;;;3.15;82.79;97959.23;2175181;82;21117;-77
2020/12/25 01:18:07;;;;;;;7.97;6.37;;;;;;;3.15;82.74;97957.53;2175298;82;21154;-77
2020/12/25 01:21:08;;;;;;;9.07;7.23;;;;;;;3.15;82.91;97960.11;2175381;82;21408;-77
2020/12/25 01:24:12;;;;;;;8.50;7.53;;;;;;;3.18;82.65;97963.19;2175549;82;21138;-77
2020/12/25 01:27:13;;;;;;;7.27;6.53;;;;;;;3.24;82.80;97972.80;2175921;82;21423;-77
2020/12/25 01:30:17;;;;;;;8.23;7.10;;;;;;;3.25;82.63;97974.13;2175555;82;21138;-77
2020/12/25 01:33:18;;;;;;;7.33;6.27;;;;;;;3.27;82.60;97979.32;2178546;81;21416;-77
2020/12/25 01:36:21;;;;;;;8.47;6.40;;;;;;;3.28;82.56;97983.23;2178684;82;21110;-77
2020/12/25 01:39:22;;;;;;;6.73;6.10;;;;;;;3.29;82.69;97989.27;2178983;81;21165;-77
2020/12/25 01:42:23;;;;;;;7.97;6.67;;;;;;;3.28;82.56;97985.81;2178672;82;21114;-77
2020/12/25 01:45:24;;;;;;;10.00;6.60;;;;;;;3.26;82.61;97985.31;2178833;82;21368;-77
2020/12/25 01:48:26;;;;;;;8.43;6.83;;;;;;;3.25;82.51;97990.02;2179055;82;21126;-78
2020/12/25 01:51:27;;;;;;;8.33;7.53;;;;;;;3.26;82.68;97998.20;2178733;82;21420;-78
2020/12/25 01:54:31;;;;;;;8.20;7.20;;;;;;;3.26;82.65;98003.37;2178726;82;21104;-77
2020/12/25 01:57:32;;;;;;;9.17;7.97;;;;;;;3.23;82.62;98008.45;2179125;82;21154;-78
2020/12/25 02:00:33;;;;;;;10.93;8.13;;;;;;;3.24;82.38;98009.77;2178954;82;22105;-78
2020/12/25 02:03:34;;;;;;;8.03;7.30;;;;;;;3.25;82.55;98014.52;2179021;82;21122;-77
2020/12/25 02:06:37;;;;;;;10.73;9.50;;;;;;;3.24;82.39;98011.48;2178985;82;21090;-78
2020/12/25 02:09:38;;;;;;;11.43;8.40;;;;;;;3.22;82.40;98017.89;2178885;82;21090;-77
2020/12/25 02:12:39;;;;;;;12.33;8.53;;;;;;;3.19;82.16;98028.12;2178758;82;21114;-78
2020/12/25 02:15:40;;;;;;;10.20;8.30;;;;;;;3.18;82.14;98040.14;2179023;82;21412;-78
2020/12/25 02:18:41;;;;;;;10.17;8.17;;;;;;;3.18;82.09;98044.01;2178830;82;21162;-78
2020/12/25 02:21:43;;;;;;;8.80;7.93;;;;;;;3.19;82.00;98042.30;2179033;82;21149;-78
2020/12/25 02:24:44;;;;;;;8.80;8.00;;;;;;;3.16;81.96;98053.41;2179075;82;21106;-78
2020/12/25 02:27:45;;;;;;;9.00;7.77;;;;;;;3.14;81.92;98052.91;2178786;82;21439;-78
2020/12/25 02:30:46;;;;;;;8.83;7.93;;;;;;;3.12;82.00;98064.47;2178869;81;21106;-78
2020/12/25 02:33:47;;;;;;;9.13;8.10;;;;;;;3.12;82.09;98059.31;2175829;81;21157;-78
2020/12/25 02:36:48;;;;;;;9.47;8.20;;;;;;;3.14;81.88;98057.64;2175469;82;21095;-77
2020/12/25 02:39:49;;;;;;;9.33;8.43;;;;;;;3.15;82.00;98059.81;2175359;82;21388;-77
2020/12/25 02:42:50;;;;;;;9.13;8.23;;;;;;;3.15;81.89;98059.39;2175412;82;21133;-77
2020/12/25 02:45:51;;;;;;;8.70;7.90;;;;;;;3.17;81.90;98064.59;2175367;82;21423;-77
2020/12/25 02:48:52;;;;;;;9.50;7.90;;;;;;;3.18;81.89;98076.25;2175372;82;21118;-77
2020/12/25 02:51:53;;;;;;;8.73;7.50;;;;;;;3.18;81.60;98076.66;2175464;82;21145;-77
2020/12/25 02:54:55;;;;;;;9.53;7.47;;;;;;;3.22;81.55;98086.64;2175474;82;21356;-76
2020/12/25 02:57:59;;;;;;;7.50;6.80;;;;;;;3.23;81.45;98098.30;2175353;82;21154;-77
2020/12/25 03:00:59;;;;;;;9.00;7.53;;;;;;;3.19;81.09;98096.45;2175520;82;21146;-77
2020/12/25 03:04:01;;;;;;;7.03;6.33;;;;;;;3.19;81.32;98089.59;2175568;82;21078;-77
2020/12/25 03:07:02;;;;;;;7.37;6.67;;;;;;;3.19;80.99;98097.33;2175454;82;21380;-77
2020/12/25 03:10:03;;;;;;;8.13;6.77;;;;;;;3.19;81.05;98098.62;2175266;82;21102;-77
2020/12/25 03:13:04;;;;;;;9.07;6.90;;;;;;;3.18;81.04;98100.75;2175412;82;21244;-77
2020/12/25 03:16:05;;;;;;;7.47;6.77;;;;;;;3.17;81.08;98100.70;2175472;82;21122;-77
2020/12/25 03:19:06;;;;;;;8.47;6.83;;;;;;;3.17;81.15;98105.86;2175545;82;21165;-77
2020/12/25 03:22:10;;;;;;;8.33;7.53;;;;;;;3.18;81.23;98112.34;2175534;82;21443;-77
2020/12/25 03:25:11;;;;;;;9.65;8.18;;;;;;;3.23;81.25;98106.45;2175785;82;21110;-77
2020/12/25 03:28:12;;;;;;;7.80;7.10;;;;;;;3.23;81.17;98116.35;2175172;82;21232;-77
2020/12/25 03:31:13;;;;;;;8.50;7.80;;;;;;;3.26;81.09;98123.30;2176059;81;21151;-77
2020/12/25 03:34:14;;;;;;;8.83;7.00;;;;;;;3.24;80.98;98121.09;2198610;81;21134;-77
2020/12/25 03:37:19;;;;;;;10.33;7.47;;;;;;;3.26;80.78;98133.62;2198722;81;21131;-77
2020/12/25 03:40:20;;;;;;;7.62;6.85;;;;;;;3.21;80.75;98130.91;2198934;81;21110;-77
2020/12/25 03:43:21;;;;;;;8.90;7.10;;;;;;;3.19;80.72;98139.02;2198739;81;21413;-77
2020/12/25 03:46:22;;;;;;;9.93;6.87;;;;;;;3.19;80.76;98136.02;2198583;81;21123;-77
2020/12/25 03:49:23;;;;;;;6.57;5.90;;;;;;;3.18;80.66;98138.14;2198404;81;21087;-77
2020/12/25 03:52:24;;;;;;;6.30;5.77;;;;;;;3.19;80.64;98147.63;2198250;81;21142;-77
2020/12/25 03:55:25;;;;;;;5.77;5.27;;;;;;;3.18;80.57;98145.88;2198720;81;21123;-76
2020/12/25 03:58:26;;;;;;;5.47;4.97;;;;;;;3.22;80.51;98152.41;2198453;81;21158;-76
2020/12/25 04:01:27;;;;;;;6.47;5.70;;;;;;;3.22;80.30;98151.13;2198529;81;21241;-76
2020/12/25 04:04:28;;;;;;;5.63;5.13;;;;;;;3.22;80.13;98149.83;2198543;81;21107;-76
2020/12/25 04:07:32;;;;;;;6.00;5.20;;;;;;;3.22;80.17;98147.25;2198545;81;21111;-76
2020/12/25 04:10:33;;;;;;;5.27;4.77;;;;;;;3.20;80.02;98145.50;2198421;81;21130;-76
2020/12/25 04:13:34;;;;;;;5.57;5.03;;;;;;;3.19;80.11;98146.33;2198454;81;21087;-76
2020/12/25 04:16:35;;;;;;;4.90;4.40;;;;;;;3.14;79.95;98151.77;2198634;81;21110;-78
2020/12/25 04:19:38;;;;;;;5.23;4.70;;;;;;;3.11;79.90;98150.39;2198648;81;21155;-77
2020/12/25 04:22:39;;;;;;;5.30;4.60;;;;;;;3.11;80.03;98158.55;2198382;81;21111;-77
2020/12/25 04:25:40;;;;;;;6.37;4.80;;;;;;;3.07;79.89;98162.73;2198494;81;21083;-77
2020/12/25 04:28:41;;;;;;;4.97;4.43;;;;;;;3.05;80.12;98169.55;2198604;81;21226;-77
2020/12/25 04:31:43;;;;;;;5.57;4.80;;;;;;;3.05;80.28;98170.84;2196666;81;21119;-77
2020/12/25 04:34:47;;;;;;;4.33;4.00;;;;;;;3.01;80.26;98170.28;2175609;82;21119;-77
2020/12/25 04:37:48;;;;;;;5.10;4.60;;;;;;;2.99;80.41;98175.80;2175467;82;21122;-77
2020/12/25 04:40:51;;;;;;;5.20;4.80;;;;;;;2.94;80.50;98170.92;2175460;82;21134;-76
2020/12/25 04:43:52;;;;;;;5.90;5.10;;;;;;;2.91;80.72;98166.96;2175383;82;21141;-76
2020/12/25 04:46:54;;;;;;;5.50;5.00;;;;;;;2.89;80.67;98175.06;2175472;82;21122;-76
2020/12/25 04:49:55;;;;;;;6.13;5.50;;;;;;;2.87;80.71;98169.86;2175518;82;21130;-77
2020/12/25 04:52:57;;;;;;;5.67;5.17;;;;;;;2.86;80.64;98173.27;2175449;82;21416;-76
2020/12/25 04:55:58;;;;;;;6.00;5.40;;;;;;;2.84;80.81;98181.36;2175404;82;21114;-76
2020/12/25 04:58:59;;;;;;;6.43;5.30;;;;;;;2.81;80.79;98176.11;2175619;82;21178;-76
2020/12/25 05:02:02;;;;;;;6.97;5.70;;;;;;;2.80;80.86;98174.36;2175372;82;21508;-77
2020/12/25 05:05:03;;;;;;;8.77;5.53;;;;;;;2.79;81.00;98190.66;2175476;82;21106;-76
2020/12/25 05:08:04;;;;;;;7.23;5.90;;;;;;;2.82;80.96;98193.73;2175439;82;21154;-76
2020/12/25 05:11:05;;;;;;;7.10;6.40;;;;;;;2.84;80.93;98188.22;2175507;82;21133;-76
2020/12/25 05:14:06;;;;;;;7.00;6.00;;;;;;;2.86;80.91;98188.73;2175608;82;21138;-77
2020/12/25 05:17:08;;;;;;;6.90;6.20;;;;;;;2.92;80.95;98186.75;2175099;82;21432;-77
2020/12/25 05:20:09;;;;;;;10.83;6.37;;;;;;;2.92;80.86;98199.64;2175137;82;21203;-77
2020/12/25 05:23:10;;;;;;;7.07;5.80;;;;;;;2.96;80.88;98199.33;2174617;82;21086;-77
2020/12/25 05:26:11;;;;;;;6.30;5.70;;;;;;;3.00;80.81;98202.46;2175138;82;21154;-77
2020/12/25 05:29:12;;;;;;;6.90;6.30;;;;;;;3.00;80.77;98208.91;2174718;82;21375;-77
2020/12/25 05:32:13;;;;;;;5.50;5.00;;;;;;;2.96;80.72;98219.54;2174777;81;21732;-77
2020/12/25 05:35:14;;;;;;;5.73;4.80;;;;;;;2.94;80.68;98227.64;2174714;82;21123;-76
2020/12/25 05:38:15;;;;;;;5.67;4.63;;;;;;;2.97;80.70;98228.15;2175279;82;21182;-77
2020/12/25 05:41:16;;;;;;;5.33;4.60;;;;;;;2.97;80.47;98233.30;2175456;82;21396;-77
2020/12/25 05:44:20;;;;;;;5.50;4.87;;;;;;;2.97;80.56;98238.05;2175686;82;21114;-77
2020/12/25 05:47:21;;;;;;;5.17;4.77;;;;;;;2.98;80.49;98238.92;2175511;82;21325;-77
2020/12/25 05:50:22;;;;;;;4.60;4.20;;;;;;;2.98;80.29;98239.80;2175329;82;21796;-77
2020/12/25 05:53:23;;;;;;;5.33;3.90;;;;;;;3.00;80.30;98241.14;2175567;82;21130;-77
2020/12/25 05:56:24;;;;;;;9.23;7.87;;;;;;;2.96;80.02;98245.73;2175137;82;21142;-77
2020/12/25 05:59:26;;;;;;;8.77;6.20;;;;;;;2.93;80.28;98250.38;2175793;82;21185;-76
2020/12/25 06:02:27;;;;;;;13.37;11.37;;;;;;;2.92;80.34;98260.64;2175602;82;21403;-80
2020/12/25 06:05:28;;;;;;;12.10;9.17;;;;;;;2.88;80.32;98265.70;2175604;82;21125;-79
2020/12/25 06:08:29;;;;;;;8.67;6.67;;;;;;;2.90;80.42;98263.58;2175565;82;21130;-80
2020/12/25 06:11:30;;;;;;;5.60;5.00;;;;;;;2.91;80.16;98270.08;2175430;82;21538;-79
2020/12/25 06:14:31;;;;;;;4.43;4.03;;;;;;;2.93;80.27;98276.16;2175571;82;21550;-79
2020/12/25 06:17:32;;;;;;;4.20;3.90;;;;;;;2.96;80.13;98277.55;2175658;82;21174;-81
2020/12/25 06:20:36;;;;;;;3.43;3.13;;;;;;;2.96;79.23;98283.99;2176153;82;21118;-80
2020/12/25 06:23:38;;;;;;;3.27;2.98;;;;;;;2.92;79.12;98289.88;2175951;82;21110;-78
2020/12/25 06:26:41;;;;;;;4.30;3.47;;;;;;;2.91;79.57;98291.98;2175512;82;21115;-78
2020/12/25 06:29:43;;;;;;;4.83;3.58;;;;;;;2.91;79.82;98295.86;2175659;82;21106;-78
2020/12/25 06:32:44;;;;;;;6.27;3.63;;;;;;;2.94;79.95;98306.68;2175658;81;21170;-79
2020/12/25 06:35:46;;;;;;;5.37;4.57;;;;;;;2.96;79.93;98311.48;2175203;82;21119;-77
2020/12/25 06:38:47;;;;;;;5.10;4.60;;;;;;;2.96;80.12;98312.35;2174960;82;21154;-78
2020/12/25 06:41:48;;;;;;;6.40;5.00;;;;;;;2.98;80.00;98315.86;2174993;82;21146;-77
2020/12/25 06:44:49;;;;;;;8.50;5.87;;;;;;;3.01;80.10;98317.25;2175347;82;21118;-78
2020/12/25 06:47:50;;;;;;;10.70;6.53;;;;;;;3.04;80.08;98315.19;2175619;82;21142;-78
2020/12/25 06:50:52;;;;;;;8.40;6.50;;;;;;;3.09;80.02;98321.37;2175436;82;21082;-78
2020/12/25 06:53:53;;;;;;;9.87;7.37;;;;;;;3.15;79.93;98328.02;2175568;82;21364;-77
2020/12/25 06:56:55;;;;;;;9.70;7.97;;;;;;;3.19;79.88;98335.89;2175469;82;21146;-78
2020/12/25 06:59:56;;;;;;;10.63;7.97;;;;;;;3.22;79.68;98335.12;2175894;82;21129;-78
2020/12/25 07:02:57;;;;;;;15.67;11.23;;;;;;;3.24;79.64;98344.20;2175497;82;21118;-78
2020/12/25 07:05:58;;;;;;;13.83;10.37;;;;;;;3.28;79.60;98347.34;2175771;82;21240;-78
2020/12/25 07:08:59;;;;;;;14.77;9.90;;;;;;;3.29;79.51;98348.67;2175832;82;21122;-78
2020/12/25 07:12:00;;;;;;;12.27;8.83;;;;;;;3.30;79.47;98353.42;2175695;82;21119;-78
2020/12/25 07:15:01;;;;;;;15.53;10.43;;;;;;;3.31;79.37;98355.17;2175680;82;21122;-77
2020/12/25 07:18:02;;;;;;;27.83;14.10;;;;;;;3.31;79.44;98359.05;2175738;82;21394;-78
2020/12/25 07:21:03;;;;;;;33.23;15.87;;;;;;;3.31;79.33;98362.50;2175523;82;21265;-77
2020/12/25 07:24:04;;;;;;;33.47;17.70;;;;;;;3.31;79.27;98368.08;2175720;82;21130;-78
2020/12/25 07:27:06;;;;;;;35.33;19.27;;;;;;;3.31;79.29;98365.08;2175537;82;21118;-78
2020/12/25 07:30:07;;;;;;;15.83;9.93;;;;;;;3.37;79.25;98362.70;2175575;82;21082;-78
2020/12/25 07:33:08;;;;;;;14.90;10.33;;;;;;;3.40;79.01;98368.38;2179186;81;21197;-79
2020/12/25 07:36:09;;;;;;;11.90;7.50;;;;;;;3.39;79.03;98375.65;2188830;81;21419;-79
2020/12/25 07:39:11;;;;;;;12.93;8.03;;;;;;;3.41;79.06;98374.00;2188198;81;21157;-79
2020/12/25 07:42:13;;;;;;;12.47;8.10;;;;;;;3.39;78.97;98383.39;2175995;81;21118;-78
2020/12/25 07:45:14;;;;;;;16.07;8.97;;;;;;;3.38;79.07;98380.34;2175561;82;21391;-78
2020/12/25 07:48:15;;;;;;;13.70;8.60;;;;;;;3.38;79.23;98379.05;2175487;82;21142;-81
2020/12/25 07:51:16;;;;;;;26.03;14.80;;;;;;;3.41;79.11;98375.28;2175759;82;21118;-78
2020/12/25 07:54:19;;;;;;;25.23;14.10;;;;;;;3.40;79.13;98379.98;2175761;82;21125;-78
2020/12/25 07:57:20;;;;;;;23.23;13.63;;;;;;;3.42;79.20;98383.48;2175671;82;21292;-78
2020/12/25 08:00:24;;;;;;;26.47;13.70;;;;;;;3.45;79.17;98383.59;2175568;82;21118;-78
2020/12/25 08:03:25;;;;;;;20.10;11.87;;;;;;;3.44;79.10;98383.13;2175844;82;21138;-78
2020/12/25 08:06:26;;;;;;;19.13;9.83;;;;;;;3.44;79.09;98388.28;2175746;82;21106;-78
2020/12/25 08:09:31;;;;;;;9.50;7.90;;;;;;;3.48;79.14;98395.33;2175542;82;21423;-79
2020/12/25 08:12:35;;;;;;;10.70;8.50;;;;;;;3.55;79.00;98401.16;2175926;82;21392;-79
2020/12/25 08:15:36;;;;;;;12.90;8.80;;;;;;;3.60;79.00;98403.88;2175800;82;21086;-79
2020/12/25 08:18:37;;;;;;;13.27;9.97;;;;;;;3.71;79.01;98403.39;2175272;82;21189;-78
2020/12/25 08:21:38;;;;;;;11.43;8.13;;;;;;;3.80;78.77;98397.64;2176060;82;21126;-79
2020/12/25 08:24:40;;;;;;;9.57;8.23;;;;;;;3.88;78.69;98402.63;2175473;82;21390;-79
2020/12/25 08:27:41;;;;;;;18.23;11.50;;;;;;;3.94;78.33;98398.06;2175462;82;21114;-78
2020/12/25 08:30:42;;;;;;;26.33;12.37;;;;;;;3.99;78.23;98395.21;2175820;82;21078;-79
2020/12/25 08:33:43;;;;;;;23.87;13.60;;;;;;;4.60;86.66;98404.78;2175246;79;21267;-79
2020/12/25 08:36:44;;;;;;;62.43;33.37;;;;;;;7.41;88.51;98400.09;2175339;82;21114;-79
2020/12/25 08:39:45;;;;;;;36.00;20.70;;;;;;;9.18;77.49;98391.77;2175495;81;21168;-80
2020/12/25 08:42:46;;;;;;;15.93;9.57;;;;;;;10.55;78.90;98398.96;2175286;82;21451;-79
2020/12/25 08:45:47;;;;;;;11.80;8.37;;;;;;;9.83;68.09;98399.33;2175350;81;21110;-79
2020/12/25 08:48:48;;;;;;;6.87;6.17;;;;;;;8.87;66.33;98411.39;2175483;81;21118;-81
2020/12/25 08:51:49;;;;;;;5.93;5.37;;;;;;;7.74;67.81;98416.66;2175489;82;21114;-80
2020/12/25 08:54:52;;;;;;;5.83;5.23;;;;;;;6.74;68.05;98426.47;2175476;81;21130;-78
2020/12/25 08:57:54;;;;;;;6.83;6.03;;;;;;;6.11;70.18;98511.06;2175544;82;21389;-79
2020/12/25 09:00:57;;;;;;;6.30;5.70;;;;;;;5.65;71.26;98433.05;2175627;81;21091;-79
2020/12/25 09:03:59;;;;;;;9.43;7.27;;;;;;;5.31;71.68;98447.27;2175448;81;21111;-79
2020/12/25 09:07:00;;;;;;;6.83;5.10;;;;;;;5.12;72.90;98445.47;2175212;81;21095;-79
2020/12/25 09:10:01;;;;;;;4.70;4.27;;;;;;;4.97;72.68;98446.76;2175372;82;21153;-78
2020/12/25 09:13:02;;;;;;;6.70;5.00;;;;;;;4.87;73.11;98448.22;2175320;82;21392;-79
2020/12/25 09:16:03;;;;;;;5.23;4.43;;;;;;;4.76;73.40;98447.91;2175426;81;21138;-78
2020/12/25 09:19:04;;;;;;;7.73;5.00;;;;;;;4.61;73.31;98447.48;2175739;81;21535;-78
2020/12/25 09:22:05;;;;;;;5.73;5.00;;;;;;;4.59;73.42;98461.20;2174994;82;21126;-79
2020/12/25 09:25:06;;;;;;;6.80;5.27;;;;;;;4.59;74.09;98458.19;2174863;81;21393;-79
2020/12/25 09:28:07;;;;;;;6.13;4.87;;;;;;;4.64;74.09;98464.38;2175407;81;21086;-79
2020/12/25 09:31:08;;;;;;;6.00;4.13;;;;;;;4.67;73.53;98457.12;2175230;82;21102;-78
2020/12/25 09:34:10;;;;;;;5.33;4.53;;;;;;;4.67;74.08;98451.53;2180767;81;21150;-79
2020/12/25 09:37:13;;;;;;;7.80;4.70;;;;;;;4.66;73.99;98451.49;2188851;81;21380;-79
2020/12/25 09:40:14;;;;;;;7.17;4.40;;;;;;;4.67;74.08;98457.12;2178544;81;21118;-79
2020/12/25 09:43:15;;;;;;;8.93;6.03;;;;;;;4.63;74.17;98453.98;2175180;82;21479;-80
2020/12/25 09:46:16;;;;;;;8.70;5.33;;;;;;;4.65;74.00;98457.08;2175407;82;21110;-78
2020/12/25 09:49:17;;;;;;;7.80;5.17;;;;;;;4.65;73.89;98449.32;2175270;82;21106;-79
2020/12/25 09:52:18;;;;;;;13.67;6.83;;;;;;;4.65;73.30;98451.03;2175202;82;21118;-81
2020/12/25 09:55:19;;;;;;;7.50;5.23;;;;;;;4.63;73.50;98453.98;2175540;82;21098;-78
2020/12/25 09:58:21;;;;;;;18.53;10.13;;;;;;;4.63;73.40;98456.58;2175047;82;21137;-79
2020/12/25 10:01:22;;;;;;;13.77;8.63;;;;;;;4.54;73.61;98458.89;2175584;82;21118;-79
2020/12/25 10:04:25;;;;;;;10.63;7.83;;;;;;;4.45;73.67;98455.20;2175891;82;21137;-80
2020/12/25 10:07:26;;;;;;;9.17;5.63;;;;;;;4.38;73.53;98458.85;2175523;82;21150;-78
2020/12/25 10:10:27;;;;;;;12.57;7.17;;;;;;;4.30;73.85;98462.88;2175794;82;21086;-79
2020/12/25 10:13:28;;;;;;;8.23;6.17;;;;;;;4.25;74.44;98462.74;2175537;82;21122;-78
2020/12/25 10:16:32;;;;;;;9.33;6.50;;;;;;;4.24;74.50;98459.70;2175452;82;21118;-78
2020/12/25 10:19:34;;;;;;;13.10;7.40;;;;;;;4.22;74.82;98457.48;2176025;82;21127;-79
2020/12/25 10:22:37;;;;;;;6.20;5.13;;;;;;;4.18;74.74;98458.22;2175595;82;21368;-79
2020/12/25 10:25:38;;;;;;;8.33;7.37;;;;;;;4.03;74.95;98461.63;2175686;82;21106;-78
2020/12/25 10:28:40;;;;;;;8.47;7.43;;;;;;;3.91;75.39;98457.36;2175830;82;21117;-79
2020/12/25 10:31:41;;;;;;;7.37;5.23;;;;;;;3.83;75.76;98467.03;2175853;82;21126;-80
2020/12/25 10:34:44;;;;;;;5.00;4.57;;;;;;;3.78;75.95;98470.30;2175494;81;21158;-80
2020/12/25 10:37:45;;;;;;;6.47;5.57;;;;;;;3.70;75.94;98471.33;2175544;82;21162;-80
2020/12/25 10:40:46;;;;;;;7.10;6.30;;;;;;;3.70;76.34;98473.04;2175439;82;21427;-79
2020/12/25 10:43:47;;;;;;;7.73;4.93;;;;;;;3.76;76.68;98478.41;2175235;82;21126;-80
2020/12/25 10:46:48;;;;;;;5.53;5.03;;;;;;;3.82;76.31;98478.19;2175054;82;21107;-79
2020/12/25 10:49:49;;;;;;;6.43;4.23;;;;;;;3.89;76.13;98477.09;2175095;82;21110;-79
2020/12/25 10:52:50;;;;;;;5.47;3.13;;;;;;;3.94;75.12;98476.83;2175086;82;21408;-79
2020/12/25 10:55:51;;;;;;;4.90;3.47;;;;;;;3.86;74.64;98486.03;2174981;82;21139;-80
2020/12/25 10:58:52;;;;;;;6.33;3.90;;;;;;;3.79;74.66;98483.25;2175350;82;21146;-80
2020/12/25 11:01:54;;;;;;;7.13;4.07;;;;;;;3.78;74.81;98482.79;2175468;82;21423;-80
2020/12/25 11:04:55;;;;;;;7.17;4.40;;;;;;;3.79;75.05;98481.08;2175423;82;21147;-81
2020/12/25 11:07:58;;;;;;;8.30;5.37;;;;;;;3.80;74.75;98487.59;2175279;82;21142;-78
2020/12/25 11:10:59;;;;;;;7.73;6.63;;;;;;;3.81;74.77;98489.75;2175263;82;21412;-79
2020/12/25 11:14:02;;;;;;;8.77;7.20;;;;;;;3.78;74.92;98492.23;2175145;82;21138;-79
2020/12/25 11:17:04;;;;;;;8.17;6.23;;;;;;;3.77;73.89;98484.03;2175347;82;21114;-79
2020/12/25 11:20:05;;;;;;;8.47;6.73;;;;;;;3.77;74.05;98487.90;2175107;82;21224;-79
2020/12/25 11:23:06;;;;;;;13.37;9.20;;;;;;;3.78;74.54;98495.70;2175202;82;21122;-79
2020/12/25 11:26:07;;;;;;;13.23;7.90;;;;;;;3.76;73.71;98499.93;2175420;82;21400;-79
2020/12/25 11:29:11;;;;;;;8.77;6.47;;;;;;;3.72;74.16;98507.53;2175427;82;21122;-78
2020/12/25 11:32:12;;;;;;;7.17;5.97;;;;;;;3.66;73.69;98503.03;2175668;82;21200;-79
2020/12/25 11:35:14;;;;;;;11.13;6.10;;;;;;;3.55;72.82;98512.13;2175139;81;21539;-79
2020/12/25 11:38:15;;;;;;;7.77;6.00;;;;;;;3.53;73.64;98500.88;2175152;82;21162;-79
2020/12/25 11:41:16;;;;;;;11.67;6.90;;;;;;;3.54;73.69;98502.62;2175111;82;21126;-78
2020/12/25 11:44:17;;;;;;;17.67;8.83;;;;;;;3.55;73.93;98509.95;2174793;82;21150;-79
2020/12/25 11:47:18;;;;;;;9.47;6.30;;;;;;;3.55;74.22;98504.38;2175371;82;21146;-79
2020/12/25 11:50:21;;;;;;;10.77;6.10;;;;;;;3.56;72.91;98508.72;2175748;82;21138;-79
2020/12/25 11:53:22;;;;;;;8.57;5.20;;;;;;;3.58;73.33;98516.09;2175367;82;21142;-79
2020/12/25 11:56:25;;;;;;;7.03;4.27;;;;;;;3.66;72.42;98518.52;2175440;82;21090;-78
2020/12/25 11:59:26;;;;;;;12.10;5.87;;;;;;;3.71;72.12;98523.84;2175289;82;21165;-78
2020/12/25 12:02:29;;;;;;;7.10;5.00;;;;;;;3.76;72.43;98520.58;2175539;82;21149;-79
2020/12/25 12:05:30;;;;;;;8.33;5.67;;;;;;;3.79;72.27;98518.11;2175485;82;21106;-81
2020/12/25 12:08:34;;;;;;;6.10;4.50;;;;;;;3.80;71.76;98522.86;2175491;82;21121;-79
2020/12/25 12:11:35;;;;;;;4.80;3.80;;;;;;;3.79;71.48;98523.68;2175517;82;21145;-79
2020/12/25 12:14:36;;;;;;;5.27;3.37;;;;;;;3.81;71.27;98524.20;2175236;82;21401;-79
2020/12/25 12:17:38;;;;;;;5.80;4.00;;;;;;;3.85;71.04;98526.47;2175107;82;21220;-78
2020/12/25 12:20:39;;;;;;;7.27;4.00;;;;;;;3.90;70.67;98525.33;2175301;82;21129;-78
2020/12/25 12:23:40;;;;;;;8.53;4.73;;;;;;;3.90;70.43;98524.91;2175361;82;21122;-80
2020/12/25 12:26:44;;;;;;;10.20;5.97;;;;;;;3.91;70.40;98529.25;2175615;82;21361;-79
2020/12/25 12:29:45;;;;;;;11.07;5.23;;;;;;;3.87;68.53;98545.88;2175675;82;21138;-82
2020/12/25 12:32:46;;;;;;;34.67;12.53;;;;;;;3.77;69.43;98540.83;2175686;82;21150;-79
2020/12/25 12:35:47;;;;;;;69.83;22.00;;;;;;;3.71;70.16;98545.78;2182136;81;21154;-78
2020/12/25 12:38:48;;;;;;;63.30;19.30;;;;;;;3.71;69.94;98544.08;2185495;81;21282;-79
2020/12/25 12:41:50;;;;;;;17.20;7.67;;;;;;;3.70;69.21;98539.74;2178959;81;21094;-78
2020/12/25 12:44:52;;;;;;;30.60;11.23;;;;;;;3.72;69.03;98543.66;2175425;82;21244;-79
2020/12/25 12:47:56;;;;;;;41.27;13.47;;;;;;;3.72;68.84;98544.55;2175371;82;21110;-78
2020/12/25 12:50:57;;;;;;;15.25;8.15;;;;;;;3.73;68.80;98545.01;2175642;82;21424;-78
2020/12/25 12:53:58;;;;;;;31.70;12.10;;;;;;;3.73;69.10;98546.71;2175775;82;21137;-77
2020/12/25 12:56:59;;;;;;;48.33;17.70;;;;;;;3.76;68.52;98548.98;2175336;82;21123;-79
2020/12/25 13:00:00;;;;;;;7.33;4.63;;;;;;;3.77;68.77;98555.02;2175301;82;21170;-80
2020/12/25 13:03:01;;;;;;;13.40;6.70;;;;;;;3.73;68.24;98554.05;2175392;82;21114;-79
2020/12/25 13:06:03;;;;;;;17.73;8.83;;;;;;;3.67;68.45;98564.58;2175267;82;21090;-80
2020/12/25 13:09:04;;;;;;;8.20;4.13;;;;;;;3.63;69.29;98556.26;2175181;82;21138;-79
2020/12/25 13:12:05;;;;;;;7.67;5.40;;;;;;;3.58;69.34;98556.09;2175313;82;21107;-79
2020/12/25 13:15:06;;;;;;;20.87;9.87;;;;;;;3.58;69.50;98561.27;2174953;82;21154;-80
2020/12/25 13:18:07;;;;;;;8.83;5.43;;;;;;;3.56;69.74;98568.07;2175359;82;21442;-79
2020/12/25 13:21:08;;;;;;;11.63;6.57;;;;;;;3.54;69.81;98567.14;2175510;82;21295;-78
2020/12/25 13:24:09;;;;;;;11.43;6.20;;;;;;;3.48;68.92;98578.54;2175396;82;21400;-80
2020/12/25 13:27:10;;;;;;;28.23;14.73;;;;;;;3.40;69.77;98577.36;2175620;82;21134;-79
2020/12/25 13:30:12;;;;;;;8.73;4.93;;;;;;;3.40;70.33;98581.23;2175526;82;21119;-80
2020/12/25 13:33:13;;;;;;;7.67;5.63;;;;;;;3.41;69.46;98582.98;2175505;82;21122;-79
2020/12/25 13:36:14;;;;;;;7.33;5.50;;;;;;;3.38;70.23;98588.91;2184638;81;21173;-80
2020/12/25 13:39:15;;;;;;;6.67;4.20;;;;;;;3.35;69.54;98590.09;2187454;81;21114;-79
2020/12/25 13:42:16;;;;;;;9.60;5.30;;;;;;;3.34;69.82;98584.47;2175590;82;21176;-79
2020/12/25 13:45:17;;;;;;;18.90;9.80;;;;;;;3.34;69.90;98592.62;2175703;82;21119;-80
2020/12/25 13:48:18;;;;;;;9.20;6.50;;;;;;;3.34;70.41;98599.06;2175821;82;21094;-80
2020/12/25 13:51:19;;;;;;;4.90;4.40;;;;;;;3.34;70.50;98608.09;2175549;82;21126;-81
2020/12/25 13:54:20;;;;;;;6.40;3.33;;;;;;;3.32;70.25;98609.74;2175871;82;21118;-79
2020/12/25 13:57:23;;;;;;;6.70;4.47;;;;;;;3.29;70.42;98618.66;2175612;82;21392;-81
2020/12/25 14:00:25;;;;;;;9.23;4.93;;;;;;;3.27;70.31;98621.19;2175730;82;21091;-79
2020/12/25 14:03:26;;;;;;;6.97;3.83;;;;;;;3.24;70.16;98620.19;2175778;82;21134;-80
2020/12/25 14:06:28;;;;;;;6.43;4.57;;;;;;;3.20;70.47;98624.36;2175684;82;21113;-80
2020/12/25 14:09:29;;;;;;;6.13;3.80;;;;;;;3.14;70.38;98626.30;2175732;82;21126;-79
2020/12/25 14:12:31;;;;;;;7.53;4.93;;;;;;;3.11;70.96;98627.48;2175729;82;21492;-80
2020/12/25 14:15:32;;;;;;;23.23;9.77;;;;;;;3.09;71.22;98623.96;2175710;82;21118;-78
2020/12/25 14:18:33;;;;;;;30.40;12.00;;;;;;;3.07;71.42;98629.47;2175868;82;21165;-78
2020/12/25 14:21:34;;;;;;;19.80;8.23;;;;;;;3.03;71.12;98632.75;2176127;82;21416;-79